North Fork, Illinois
Current Conditions -  °F | °C
As of 8:55 AM on Friday 24 Oct 2014 (Local Time) from KHSB Reporting Station
Broken Clouds Broken Clouds  
Wind Chill: 50°   Ceiling: 2800
Heat Index: 50°   Visibility: 10mi
Dew Point: 48°   Wind: 0mph
Humidity: 95%   Direction: NA
Pressure: 30.14"   Gusts: NA
Location:  37.8197°N, 88.2641°W
Report Text: KHSB 241355Z AUTO 00000KT 10SM BKN028 10/09 A3014 RMK AO2 T00980091
Loading
Personal Weather Stations






























Interactive Weather Map
Tropical Storm Tracking
New forecast layout! Learn more

10-Day Weather Forecast

Advertisements
Track Severe Weather on mobile